Home   Weather   Turkey   Kemer   Past weeks
Flag for Turkey

Past Weather in Kemer, Turkey — Yesterday and Last 2 Weeks

Currently: 54 °F. Clear. (Weather station: Antalya Airport, Turkey). See more current weather

Past Weather in Kemer — Graph

°F

Kemer Temperature Yesterday

Maximum temperature yesterday: 70 °F (at 9:50 am)
Minimum temperature yesterday: 48 °F (at 5:50 am)
Average temperature yesterday: 62 °F

High & Low Weather Summary for the Past Weeks

 TemperatureHumidityPressure
High86 °F (Apr 18, 12:20 pm)100% (Apr 8, 1:50 am)30.15 "Hg (Apr 8, 1:50 am)
Low45 °F (Apr 13, 4:50 am)22% (Apr 10, 4:20 pm)29.74 "Hg (Apr 19, 7:50 pm)
Average61 °F57%30.00 "Hg
* Reported Apr 8 1:20 am — Apr 23 1:50 am, Kemer. Weather by CustomWeather, © 2021

Note: Actual official high and low records may vary slightly from our data, if they occured in-between our weather recording intervals... More about our weather records

Kemer Weather History for the Previous 24 Hours

Scroll right to see more
 ConditionsComfort  
Time TempWeatherWind HumidityBarometerVisibility
1:50 am
Fri, Apr 23
55 °FClear.5 mph82%30.09 "Hg10 mi
1:20 am55 °FClear.5 mph82%30.09 "Hg10 mi
12:50 am57 °FClear.5 mph82%30.09 "Hg10 mi
12:20 am57 °FClear.2 mph82%30.09 "Hg10 mi
11:50 pm
Thu, Apr 22
57 °FClear.1 mph82%30.09 "Hg10 mi
11:20 pm59 °FClear.2 mph82%30.09 "Hg10 mi
10:50 pm59 °FClear.5 mph82%30.09 "Hg10 mi
10:20 pm61 °FClear.2 mph83%30.09 "Hg10 mi
9:50 pm61 °FClear.3 mph83%30.09 "Hg10 mi
9:20 pm61 °FClear.5 mph83%30.09 "Hg10 mi
8:50 pm63 °FClear.5 mph77%30.09 "Hg10 mi
8:20 pm63 °FClear.5 mph77%30.07 "Hg10 mi
7:50 pm63 °FClear.6 mph77%30.07 "Hg10 mi
7:20 pm66 °FSunny.6 mph68%30.07 "Hg10 mi
6:50 pm68 °FPassing clouds.5 mph69%30.07 "HgN/A
6:20 pm68 °FPassing clouds.6 mph64%30.07 "HgN/A
5:50 pm70 °FPassing clouds.6 mph57%30.07 "HgN/A
5:20 pm70 °FPassing clouds.8 mph64%30.07 "HgN/A
4:50 pm70 °FPassing clouds.9 mph60%30.07 "HgN/A
4:20 pm70 °FPassing clouds.8 mph60%30.07 "HgN/A
3:50 pm70 °FPassing clouds.10 mph57%30.07 "HgN/A
3:20 pm68 °FPassing clouds.13 mph64%30.07 "HgN/A
2:50 pm70 °FPassing clouds.13 mph60%30.09 "HgN/A
2:20 pm70 °FPassing clouds.14 mph53%30.09 "HgN/A
1:50 pm70 °FPassing clouds.12 mph46%30.09 "HgN/A
1:20 pm70 °FPassing clouds.9 mph50%30.09 "HgN/A
12:50 pm70 °FPassing clouds.9 mph53%30.09 "HgN/A
12:20 pm68 °FPassing clouds.9 mph53%30.09 "HgN/A
11:50 am70 °FPassing clouds.9 mph53%30.12 "HgN/A
11:20 am68 °FPassing clouds.9 mph56%30.12 "HgN/A
10:50 am68 °FSunny.10 mph53%30.09 "Hg10 mi
10:20 am68 °FPassing clouds.8 mph56%30.09 "HgN/A
9:50 am70 °FPassing clouds.5 mph38%30.09 "HgN/A
9:20 am68 °FPassing clouds.6 mph40%30.09 "HgN/A
8:50 am66 °FPassing clouds.5 mph43%30.09 "HgN/A
8:20 am64 °FSunny.8 mph43%30.09 "Hg10 mi
7:50 am61 °FSunny.8 mph48%30.09 "Hg10 mi
7:20 am55 °FSunny.6 mph63%30.07 "Hg10 mi
6:50 am54 °FPassing clouds.3 mph67%30.07 "HgN/A
6:20 am50 °FSunny.3 mph82%30.07 "Hg10 mi
5:50 am48 °FClear.2 mph87%30.04 "Hg10 mi
5:20 am52 °FClear.5 mph82%30.04 "Hg10 mi
4:50 am52 °FClear.5 mph88%30.04 "Hg10 mi
4:20 am54 °FClear.5 mph88%30.04 "Hg10 mi
3:50 am54 °FPassing clouds.3 mph88%30.04 "HgN/A
3:20 am54 °FClear.3 mph88%30.04 "Hg10 mi
Weather by CustomWeather, © 2021

See weather overview